Terminal Aerodrome Forecast
Issued by NWS Twin Cities, MN

Home | Current Version | Previous Version | Graphics & Text | Print | Product List | Glossary On
Versions: 1 2 3 4 5 6 7 8 9 10 11 12 13 14
480
FTUS43 KMPX 231720
TAFEAU
TAF
KEAU 231720Z 2318/2418 18013G22KT P6SM SCT040 BKN250
     FM240000 17009KT P6SM SCT040 BKN150
     FM240600 17007KT 5SM -SHRA SCT012 OVC025
      TEMPO 2406/2410 3SM TSRA SCT007 OVC015CB
     FM241100 18007KT 3SM -SHRA BR SCT007 OVC015
     FM241400 21007KT 4SM BR SCT007 OVC015=

USA.gov is the U.S. government's official web portal to all federal, state and local government web resources and services.